sensor_id;sensor_type;location;lat;lon;timestamp;P1;durP1;ratioP1;P2;durP2;ratioP2
50851;SDS011;43953;45.508;-122.806;2023-03-26T00:00:09;0.70;;;0.30;;
50851;SDS011;43953;45.508;-122.806;2023-03-26T00:00:42;0.85;;;0.40;;
50851;SDS011;43953;45.508;-122.806;2023-03-26T00:01:16;0.63;;;0.40;;
50851;SDS011;43953;45.508;-122.806;2023-03-26T00:01:51;0.77;;;0.50;;
50851;SDS011;43953;45.508;-122.806;2023-03-26T00:02:22;0.45;;;0.30;;
50851;SDS011;43953;45.508;-122.806;2023-03-26T00:02:54;0.30;;;0.30;;
50851;SDS011;43953;45.508;-122.806;2023-03-26T00:03:26;0.70;;;0.30;;
50851;SDS011;43953;45.508;-122.806;2023-03-26T00:03:59;0.55;;;0.30;;
50851;SDS011;43953;45.508;-122.806;2023-03-26T00:04:31;0.85;;;0.30;;
50851;SDS011;43953;45.508;-122.806;2023-03-26T00:05:04;0.38;;;0.38;;
50851;SDS011;43953;45.508;-122.806;2023-03-26T00:05:37;0.20;;;0.20;;
50851;SDS011;43953;45.508;-122.806;2023-03-26T00:06:11;0.55;;;0.30;;
50851;SDS011;43953;45.508;-122.806;2023-03-26T00:06:44;0.40;;;0.32;;
50851;SDS011;43953;45.508;-122.806;2023-03-26T00:07:18;0.82;;;0.40;;
50851;SDS011;43953;45.508;-122.806;2023-03-26T00:07:50;0.65;;;0.50;;
50851;SDS011;43953;45.508;-122.806;2023-03-26T00:08:22;2.13;;;0.80;;
50851;SDS011;43953;45.508;-122.806;2023-03-26T00:08:54;1.20;;;0.65;;
50851;SDS011;43953;45.508;-122.806;2023-03-26T00:09:27;1.35;;;0.47;;
50851;SDS011;43953;45.508;-122.806;2023-03-26T00:09:59;0.57;;;0.57;;
50851;SDS011;43953;45.508;-122.806;2023-03-26T00:10:31;0.75;;;0.52;;
50851;SDS011;43953;45.508;-122.806;2023-03-26T00:11:03;1.33;;;0.60;;
50851;SDS011;43953;45.508;-122.806;2023-03-26T00:11:36;1.02;;;0.60;;
50851;SDS011;43953;45.508;-122.806;2023-03-26T00:12:08;1.90;;;0.63;;
50851;SDS011;43953;45.508;-122.806;2023-03-26T00:12:40;0.70;;;0.52;;
50851;SDS011;43953;45.508;-122.806;2023-03-26T00:13:12;1.33;;;0.57;;
50851;SDS011;43953;45.508;-122.806;2023-03-26T00:13:43;0.73;;;0.60;;
50851;SDS011;43953;45.508;-122.806;2023-03-26T00:14:16;1.77;;;0.65;;
50851;SDS011;43953;45.508;-122.806;2023-03-26T00:14:48;0.63;;;0.40;;
50851;SDS011;43953;45.508;-122.806;2023-03-26T00:15:21;1.55;;;0.60;;
50851;SDS011;43953;45.508;-122.806;2023-03-26T00:15:53;1.25;;;0.63;;
50851;SDS011;43953;45.508;-122.806;2023-03-26T00:16:25;0.75;;;0.47;;
50851;SDS011;43953;45.508;-122.806;2023-03-26T00:16:58;1.17;;;0.50;;
50851;SDS011;43953;45.508;-122.806;2023-03-26T00:17:30;0.57;;;0.55;;
50851;SDS011;43953;45.508;-122.806;2023-03-26T00:18:02;0.90;;;0.80;;
50851;SDS011;43953;45.508;-122.806;2023-03-26T00:18:33;0.60;;;0.60;;
50851;SDS011;43953;45.508;-122.806;2023-03-26T00:19:05;1.20;;;0.47;;
50851;SDS011;43953;45.508;-122.806;2023-03-26T00:19:37;0.57;;;0.52;;
50851;SDS011;43953;45.508;-122.806;2023-03-26T00:20:10;1.35;;;0.88;;
50851;SDS011;43953;45.508;-122.806;2023-03-26T00:20:42;1.30;;;0.57;;
50851;SDS011;43953;45.508;-122.806;2023-03-26T00:21:16;0.70;;;0.60;;
50851;SDS011;43953;45.508;-122.806;2023-03-26T00:21:50;0.55;;;0.40;;
50851;SDS011;43953;45.508;-122.806;2023-03-26T00:22:23;1.45;;;0.50;;
50851;SDS011;43953;45.508;-122.806;2023-03-26T00:22:54;0.60;;;0.57;;
50851;SDS011;43953;45.508;-122.806;2023-03-26T00:23:27;0.88;;;0.47;;
50851;SDS011;43953;45.508;-122.806;2023-03-26T00:24:01;1.45;;;0.60;;
50851;SDS011;43953;45.508;-122.806;2023-03-26T00:24:39;1.08;;;0.40;;
50851;SDS011;43953;45.508;-122.806;2023-03-26T00:25:10;1.05;;;0.60;;
50851;SDS011;43953;45.508;-122.806;2023-03-26T00:25:43;1.90;;;0.60;;
50851;SDS011;43953;45.508;-122.806;2023-03-26T00:26:15;1.45;;;0.80;;
50851;SDS011;43953;45.508;-122.806;2023-03-26T00:26:47;1.50;;;0.73;;
50851;SDS011;43953;45.508;-122.806;2023-03-26T00:27:23;1.15;;;0.40;;
50851;SDS011;43953;45.508;-122.806;2023-03-26T00:27:55;0.70;;;0.60;;
50851;SDS011;43953;45.508;-122.806;2023-03-26T00:28:27;1.35;;;0.50;;
50851;SDS011;43953;45.508;-122.806;2023-03-26T00:28:59;0.57;;;0.30;;
50851;SDS011;43953;45.508;-122.806;2023-03-26T00:29:33;0.70;;;0.52;;
50851;SDS011;43953;45.508;-122.806;2023-03-26T00:30:05;0.40;;;0.40;;
50851;SDS011;43953;45.508;-122.806;2023-03-26T00:30:37;0.50;;;0.50;;
50851;SDS011;43953;45.508;-122.806;2023-03-26T00:31:12;1.08;;;0.47;;
50851;SDS011;43953;45.508;-122.806;2023-03-26T00:31:45;0.45;;;0.45;;
50851;SDS011;43953;45.508;-122.806;2023-03-26T00:32:16;0.70;;;0.50;;
50851;SDS011;43953;45.508;-122.806;2023-03-26T00:32:48;0.80;;;0.40;;
50851;SDS011;43953;45.508;-122.806;2023-03-26T00:33:20;0.40;;;0.40;;
50851;SDS011;43953;45.508;-122.806;2023-03-26T00:33:53;1.20;;;0.40;;
50851;SDS011;43953;45.508;-122.806;2023-03-26T00:34:26;1.85;;;1.05;;
50851;SDS011;43953;45.508;-122.806;2023-03-26T00:34:58;1.60;;;0.70;;
50851;SDS011;43953;45.508;-122.806;2023-03-26T00:35:34;0.93;;;0.60;;
50851;SDS011;43953;45.508;-122.806;2023-03-26T00:36:13;2.50;;;1.05;;
50851;SDS011;43953;45.508;-122.806;2023-03-26T00:36:47;1.17;;;0.80;;
50851;SDS011;43953;45.508;-122.806;2023-03-26T00:37:24;1.85;;;1.17;;
50851;SDS011;43953;45.508;-122.806;2023-03-26T00:37:56;1.80;;;0.90;;
50851;SDS011;43953;45.508;-122.806;2023-03-26T00:38:28;1.13;;;0.95;;
50851;SDS011;43953;45.508;-122.806;2023-03-26T00:39:00;1.65;;;1.10;;
50851;SDS011;43953;45.508;-122.806;2023-03-26T00:39:35;1.85;;;1.25;;
50851;SDS011;43953;45.508;-122.806;2023-03-26T00:40:09;1.88;;;1.30;;
50851;SDS011;43953;45.508;-122.806;2023-03-26T00:40:41;2.25;;;1.20;;
50851;SDS011;43953;45.508;-122.806;2023-03-26T00:41:18;1.48;;;1.02;;
50851;SDS011;43953;45.508;-122.806;2023-03-26T00:41:55;2.05;;;1.30;;
50851;SDS011;43953;45.508;-122.806;2023-03-26T00:42:27;1.35;;;1.08;;
50851;SDS011;43953;45.508;-122.806;2023-03-26T00:42:59;2.75;;;1.13;;
50851;SDS011;43953;45.508;-122.806;2023-03-26T00:43:33;1.52;;;1.00;;
50851;SDS011;43953;45.508;-122.806;2023-03-26T00:44:05;1.58;;;0.98;;
50851;SDS011;43953;45.508;-122.806;2023-03-26T00:44:37;0.98;;;0.88;;
50851;SDS011;43953;45.508;-122.806;2023-03-26T00:45:09;1.15;;;0.88;;
50851;SDS011;43953;45.508;-122.806;2023-03-26T00:45:41;1.58;;;0.70;;
50851;SDS011;43953;45.508;-122.806;2023-03-26T00:46:13;1.15;;;0.73;;
50851;SDS011;43953;45.508;-122.806;2023-03-26T00:46:45;1.48;;;0.82;;
50851;SDS011;43953;45.508;-122.806;2023-03-26T00:47:17;1.67;;;0.90;;
50851;SDS011;43953;45.508;-122.806;2023-03-26T00:47:49;1.50;;;0.75;;
50851;SDS011;43953;45.508;-122.806;2023-03-26T00:48:21;1.40;;;0.80;;
50851;SDS011;43953;45.508;-122.806;2023-03-26T00:48:53;1.27;;;0.73;;
50851;SDS011;43953;45.508;-122.806;2023-03-26T00:49:28;1.05;;;0.63;;
50851;SDS011;43953;45.508;-122.806;2023-03-26T00:50:01;1.27;;;0.73;;
50851;SDS011;43953;45.508;-122.806;2023-03-26T00:50:34;1.08;;;0.80;;
50851;SDS011;43953;45.508;-122.806;2023-03-26T00:51:05;1.23;;;0.63;;
50851;SDS011;43953;45.508;-122.806;2023-03-26T00:51:38;1.20;;;0.93;;
50851;SDS011;43953;45.508;-122.806;2023-03-26T00:52:13;1.80;;;0.90;;
50851;SDS011;43953;45.508;-122.806;2023-03-26T00:52:48;1.30;;;0.70;;
50851;SDS011;43953;45.508;-122.806;2023-03-26T00:53:20;2.53;;;1.17;;
50851;SDS011;43953;45.508;-122.806;2023-03-26T00:53:52;2.08;;;0.70;;
50851;SDS011;43953;45.508;-122.806;2023-03-26T00:54:24;1.08;;;0.88;;
50851;SDS011;43953;45.508;-122.806;2023-03-26T00:54:56;1.15;;;0.90;;
50851;SDS011;43953;45.508;-122.806;2023-03-26T00:55:28;1.42;;;1.02;;
50851;SDS011;43953;45.508;-122.806;2023-03-26T00:56:00;0.95;;;0.70;;
50851;SDS011;43953;45.508;-122.806;2023-03-26T00:56:31;1.67;;;0.80;;
50851;SDS011;43953;45.508;-122.806;2023-03-26T00:57:04;1.17;;;0.80;;
50851;SDS011;43953;45.508;-122.806;2023-03-26T00:57:36;1.33;;;0.70;;
50851;SDS011;43953;45.508;-122.806;2023-03-26T00:58:08;0.63;;;0.63;;
50851;SDS011;43953;45.508;-122.806;2023-03-26T00:58:40;0.75;;;0.65;;
50851;SDS011;43953;45.508;-122.806;2023-03-26T00:59:12;0.82;;;0.60;;
50851;SDS011;43953;45.508;-122.806;2023-03-26T00:59:43;1.17;;;0.70;;
50851;SDS011;43953;45.508;-122.806;2023-03-26T01:00:15;0.93;;;0.70;;
50851;SDS011;43953;45.508;-122.806;2023-03-26T01:00:54;2.03;;;0.80;;
50851;SDS011;43953;45.508;-122.806;2023-03-26T01:01:27;1.10;;;0.57;;
50851;SDS011;43953;45.508;-122.806;2023-03-26T01:02:00;1.40;;;0.75;;
50851;SDS011;43953;45.508;-122.806;2023-03-26T01:02:32;1.00;;;0.70;;
50851;SDS011;43953;45.508;-122.806;2023-03-26T01:03:04;1.40;;;0.70;;
50851;SDS011;43953;45.508;-122.806;2023-03-26T01:03:36;1.90;;;0.73;;
50851;SDS011;43953;45.508;-122.806;2023-03-26T01:04:18;0.95;;;0.80;;
50851;SDS011;43953;45.508;-122.806;2023-03-26T01:05:00;1.42;;;0.60;;
50851;SDS011;43953;45.508;-122.806;2023-03-26T01:05:52;0.80;;;0.70;;
50851;SDS011;43953;45.508;-122.806;2023-03-26T01:06:35;1.83;;;0.95;;
50851;SDS011;43953;45.508;-122.806;2023-03-26T01:07:12;1.00;;;0.82;;
50851;SDS011;43953;45.508;-122.806;2023-03-26T01:07:51;1.30;;;0.70;;
50851;SDS011;43953;45.508;-122.806;2023-03-26T01:08:30;1.63;;;0.82;;
50851;SDS011;43953;45.508;-122.806;2023-03-26T01:09:17;1.95;;;0.88;;
50851;SDS011;43953;45.508;-122.806;2023-03-26T01:09:50;2.17;;;1.00;;
50851;SDS011;43953;45.508;-122.806;2023-03-26T01:10:22;2.20;;;0.90;;
50851;SDS011;43953;45.508;-122.806;2023-03-26T01:10:54;1.65;;;0.80;;
50851;SDS011;43953;45.508;-122.806;2023-03-26T01:11:37;1.10;;;0.80;;
50851;SDS011;43953;45.508;-122.806;2023-03-26T01:12:09;1.63;;;0.98;;
50851;SDS011;43953;45.508;-122.806;2023-03-26T01:12:45;1.75;;;0.90;;
50851;SDS011;43953;45.508;-122.806;2023-03-26T01:13:20;2.22;;;0.80;;
50851;SDS011;43953;45.508;-122.806;2023-03-26T01:13:59;1.10;;;0.70;;
50851;SDS011;43953;45.508;-122.806;2023-03-26T01:14:36;2.00;;;0.73;;
50851;SDS011;43953;45.508;-122.806;2023-03-26T01:15:08;2.83;;;1.05;;
50851;SDS011;43953;45.508;-122.806;2023-03-26T01:15:40;1.40;;;0.88;;
50851;SDS011;43953;45.508;-122.806;2023-03-26T01:16:24;1.20;;;0.88;;
50851;SDS011;43953;45.508;-122.806;2023-03-26T01:16:59;1.35;;;0.95;;
50851;SDS011;43953;45.508;-122.806;2023-03-26T01:17:33;1.33;;;0.90;;
50851;SDS011;43953;45.508;-122.806;2023-03-26T01:18:05;1.52;;;0.82;;
50851;SDS011;43953;45.508;-122.806;2023-03-26T01:18:39;1.17;;;1.08;;
50851;SDS011;43953;45.508;-122.806;2023-03-26T01:19:14;1.35;;;0.90;;
50851;SDS011;43953;45.508;-122.806;2023-03-26T01:20:15;1.55;;;0.90;;
50851;SDS011;43953;45.508;-122.806;2023-03-26T01:20:56;1.65;;;0.93;;
50851;SDS011;43953;45.508;-122.806;2023-03-26T01:21:28;2.80;;;0.93;;
50851;SDS011;43953;45.508;-122.806;2023-03-26T01:22:00;2.67;;;1.35;;
50851;SDS011;43953;45.508;-122.806;2023-03-26T01:22:32;1.77;;;1.10;;
50851;SDS011;43953;45.508;-122.806;2023-03-26T01:23:07;3.15;;;1.00;;
50851;SDS011;43953;45.508;-122.806;2023-03-26T01:23:42;1.67;;;1.00;;
50851;SDS011;43953;45.508;-122.806;2023-03-26T01:24:16;1.52;;;1.15;;
50851;SDS011;43953;45.508;-122.806;2023-03-26T01:24:48;1.55;;;1.20;;
50851;SDS011;43953;45.508;-122.806;2023-03-26T01:25:23;2.28;;;1.10;;
50851;SDS011;43953;45.508;-122.806;2023-03-26T01:26:04;1.48;;;1.20;;
50851;SDS011;43953;45.508;-122.806;2023-03-26T01:28:14;2.17;;;1.00;;
50851;SDS011;43953;45.508;-122.806;2023-03-26T01:28:48;1.77;;;1.25;;
50851;SDS011;43953;45.508;-122.806;2023-03-26T01:30:41;2.20;;;1.30;;
50851;SDS011;43953;45.508;-122.806;2023-03-26T01:31:29;2.33;;;1.52;;
50851;SDS011;43953;45.508;-122.806;2023-03-26T01:32:11;1.58;;;1.20;;
50851;SDS011;43953;45.508;-122.806;2023-03-26T01:32:52;1.83;;;1.20;;
50851;SDS011;43953;45.508;-122.806;2023-03-26T01:33:57;1.65;;;0.90;;
50851;SDS011;43953;45.508;-122.806;2023-03-26T01:36:20;2.38;;;1.10;;
50851;SDS011;43953;45.508;-122.806;2023-03-26T01:37:39;1.83;;;0.95;;
50851;SDS011;43953;45.508;-122.806;2023-03-26T01:40:25;1.85;;;1.30;;
50851;SDS011;43953;45.508;-122.806;2023-03-26T01:41:20;1.45;;;0.98;;
50851;SDS011;43953;45.508;-122.806;2023-03-26T01:42:09;1.70;;;1.08;;
50851;SDS011;43953;45.508;-122.806;2023-03-26T01:42:47;1.40;;;0.90;;
50851;SDS011;43953;45.508;-122.806;2023-03-26T01:44:53;1.42;;;0.90;;
50851;SDS011;43953;45.508;-122.806;2023-03-26T01:45:45;1.38;;;1.05;;
50851;SDS011;43953;45.508;-122.806;2023-03-26T01:46:20;1.95;;;0.95;;
50851;SDS011;43953;45.508;-122.806;2023-03-26T01:46:53;1.00;;;0.80;;
50851;SDS011;43953;45.508;-122.806;2023-03-26T01:47:26;1.00;;;0.70;;
50851;SDS011;43953;45.508;-122.806;2023-03-26T01:47:58;1.00;;;0.70;;
50851;SDS011;43953;45.508;-122.806;2023-03-26T01:48:32;2.80;;;1.02;;
50851;SDS011;43953;45.508;-122.806;2023-03-26T01:49:07;2.35;;;0.80;;
50851;SDS011;43953;45.508;-122.806;2023-03-26T01:49:42;2.08;;;0.80;;
50851;SDS011;43953;45.508;-122.806;2023-03-26T01:50:14;2.08;;;1.00;;
50851;SDS011;43953;45.508;-122.806;2023-03-26T01:50:46;2.78;;;1.20;;
50851;SDS011;43953;45.508;-122.806;2023-03-26T01:51:25;3.10;;;1.00;;
50851;SDS011;43953;45.508;-122.806;2023-03-26T01:52:01;2.70;;;1.05;;
50851;SDS011;43953;45.508;-122.806;2023-03-26T01:52:36;1.50;;;0.90;;
50851;SDS011;43953;45.508;-122.806;2023-03-26T01:53:08;2.50;;;1.02;;
50851;SDS011;43953;45.508;-122.806;2023-03-26T01:53:43;3.08;;;1.58;;
50851;SDS011;43953;45.508;-122.806;2023-03-26T01:54:18;2.58;;;1.08;;
50851;SDS011;43953;45.508;-122.806;2023-03-26T01:54:53;1.45;;;0.93;;
50851;SDS011;43953;45.508;-122.806;2023-03-26T01:55:29;1.95;;;1.00;;
50851;SDS011;43953;45.508;-122.806;2023-03-26T01:57:42;3.00;;;1.10;;
50851;SDS011;43953;45.508;-122.806;2023-03-26T02:00:09;2.90;;;0.95;;
50851;SDS011;43953;45.508;-122.806;2023-03-26T02:02:36;1.77;;;0.82;;
50851;SDS011;43953;45.508;-122.806;2023-03-26T02:03:26;2.80;;;0.82;;
50851;SDS011;43953;45.508;-122.806;2023-03-26T02:05:24;2.35;;;1.27;;
50851;SDS011;43953;45.508;-122.806;2023-03-26T02:06:15;1.77;;;0.90;;
50851;SDS011;43953;45.508;-122.806;2023-03-26T02:07:06;3.25;;;1.10;;
50851;SDS011;43953;45.508;-122.806;2023-03-26T02:07:43;3.20;;;0.80;;
50851;SDS011;43953;45.508;-122.806;2023-03-26T02:08:27;1.85;;;1.10;;
50851;SDS011;43953;45.508;-122.806;2023-03-26T02:09:45;2.28;;;0.90;;
50851;SDS011;43953;45.508;-122.806;2023-03-26T02:10:24;2.92;;;1.15;;
50851;SDS011;43953;45.508;-122.806;2023-03-26T02:11:04;2.50;;;1.00;;
50851;SDS011;43953;45.508;-122.806;2023-03-26T02:11:43;2.55;;;0.85;;
50851;SDS011;43953;45.508;-122.806;2023-03-26T02:12:16;1.65;;;0.93;;
50851;SDS011;43953;45.508;-122.806;2023-03-26T02:12:50;2.17;;;0.80;;
50851;SDS011;43953;45.508;-122.806;2023-03-26T02:13:23;2.65;;;1.40;;
50851;SDS011;43953;45.508;-122.806;2023-03-26T02:13:56;1.73;;;0.90;;
50851;SDS011;43953;45.508;-122.806;2023-03-26T02:14:29;1.85;;;0.73;;
50851;SDS011;43953;45.508;-122.806;2023-03-26T02:15:01;2.35;;;1.00;;
50851;SDS011;43953;45.508;-122.806;2023-03-26T02:15:33;2.58;;;1.00;;
50851;SDS011;43953;45.508;-122.806;2023-03-26T02:16:06;4.15;;;1.10;;
50851;SDS011;43953;45.508;-122.806;2023-03-26T02:16:39;1.45;;;0.70;;
50851;SDS011;43953;45.508;-122.806;2023-03-26T02:17:11;3.05;;;1.17;;
50851;SDS011;43953;45.508;-122.806;2023-03-26T02:17:43;2.13;;;0.80;;
50851;SDS011;43953;45.508;-122.806;2023-03-26T02:18:14;2.03;;;0.90;;
50851;SDS011;43953;45.508;-122.806;2023-03-26T02:18:46;2.60;;;1.20;;
50851;SDS011;43953;45.508;-122.806;2023-03-26T02:19:21;1.98;;;0.98;;
50851;SDS011;43953;45.508;-122.806;2023-03-26T02:19:54;3.10;;;1.13;;
50851;SDS011;43953;45.508;-122.806;2023-03-26T02:20:26;2.05;;;0.90;;
50851;SDS011;43953;45.508;-122.806;2023-03-26T02:20:59;2.00;;;0.90;;
50851;SDS011;43953;45.508;-122.806;2023-03-26T02:21:32;2.75;;;0.80;;
50851;SDS011;43953;45.508;-122.806;2023-03-26T02:22:04;1.90;;;0.80;;
50851;SDS011;43953;45.508;-122.806;2023-03-26T02:22:36;2.53;;;0.93;;
50851;SDS011;43953;45.508;-122.806;2023-03-26T02:23:15;1.58;;;0.90;;
50851;SDS011;43953;45.508;-122.806;2023-03-26T02:23:47;2.83;;;1.05;;
50851;SDS011;43953;45.508;-122.806;2023-03-26T02:24:27;1.63;;;0.95;;
50851;SDS011;43953;45.508;-122.806;2023-03-26T02:24:59;2.13;;;0.98;;
50851;SDS011;43953;45.508;-122.806;2023-03-26T02:25:30;1.67;;;0.70;;
50851;SDS011;43953;45.508;-122.806;2023-03-26T02:26:05;3.30;;;1.00;;
50851;SDS011;43953;45.508;-122.806;2023-03-26T02:26:38;1.67;;;0.75;;
50851;SDS011;43953;45.508;-122.806;2023-03-26T02:27:10;1.50;;;0.90;;
50851;SDS011;43953;45.508;-122.806;2023-03-26T02:27:42;3.22;;;1.25;;
50851;SDS011;43953;45.508;-122.806;2023-03-26T02:28:14;2.92;;;1.40;;
50851;SDS011;43953;45.508;-122.806;2023-03-26T02:28:46;4.07;;;1.40;;
50851;SDS011;43953;45.508;-122.806;2023-03-26T02:29:18;3.55;;;1.30;;
50851;SDS011;43953;45.508;-122.806;2023-03-26T02:29:51;3.10;;;1.60;;
50851;SDS011;43953;45.508;-122.806;2023-03-26T02:30:23;2.53;;;1.40;;
50851;SDS011;43953;45.508;-122.806;2023-03-26T02:30:56;2.33;;;1.63;;
50851;SDS011;43953;45.508;-122.806;2023-03-26T02:31:31;2.25;;;1.50;;
50851;SDS011;43953;45.508;-122.806;2023-03-26T02:32:04;1.85;;;1.40;;
50851;SDS011;43953;45.508;-122.806;2023-03-26T02:32:42;2.03;;;1.83;;
50851;SDS011;43953;45.508;-122.806;2023-03-26T02:33:13;3.30;;;2.08;;
50851;SDS011;43953;45.508;-122.806;2023-03-26T02:33:47;3.85;;;2.00;;
50851;SDS011;43953;45.508;-122.806;2023-03-26T02:34:19;4.00;;;1.95;;
50851;SDS011;43953;45.508;-122.806;2023-03-26T02:34:51;3.38;;;2.15;;
50851;SDS011;43953;45.508;-122.806;2023-03-26T02:35:23;4.03;;;2.10;;
50851;SDS011;43953;45.508;-122.806;2023-03-26T02:35:55;4.38;;;1.92;;
50851;SDS011;43953;45.508;-122.806;2023-03-26T02:36:38;2.45;;;1.55;;
50851;SDS011;43953;45.508;-122.806;2023-03-26T02:37:12;3.00;;;1.90;;
50851;SDS011;43953;45.508;-122.806;2023-03-26T02:37:44;3.42;;;1.92;;
50851;SDS011;43953;45.508;-122.806;2023-03-26T02:38:16;5.18;;;2.10;;
50851;SDS011;43953;45.508;-122.806;2023-03-26T02:38:49;2.83;;;1.65;;
50851;SDS011;43953;45.508;-122.806;2023-03-26T02:39:21;2.38;;;1.67;;
50851;SDS011;43953;45.508;-122.806;2023-03-26T02:39:53;3.13;;;1.40;;
50851;SDS011;43953;45.508;-122.806;2023-03-26T02:40:25;2.25;;;1.58;;
50851;SDS011;43953;45.508;-122.806;2023-03-26T02:40:57;1.83;;;1.40;;
50851;SDS011;43953;45.508;-122.806;2023-03-26T02:41:29;3.22;;;1.60;;
50851;SDS011;43953;45.508;-122.806;2023-03-26T02:42:01;2.25;;;1.40;;
50851;SDS011;43953;45.508;-122.806;2023-03-26T02:42:33;2.85;;;1.48;;
50851;SDS011;43953;45.508;-122.806;2023-03-26T02:43:04;1.95;;;1.33;;
50851;SDS011;43953;45.508;-122.806;2023-03-26T02:43:36;2.67;;;1.50;;
50851;SDS011;43953;45.508;-122.806;2023-03-26T02:44:08;2.83;;;1.50;;
50851;SDS011;43953;45.508;-122.806;2023-03-26T02:44:40;2.22;;;1.23;;
50851;SDS011;43953;45.508;-122.806;2023-03-26T02:45:11;2.25;;;1.17;;
50851;SDS011;43953;45.508;-122.806;2023-03-26T02:45:43;2.30;;;1.13;;
50851;SDS011;43953;45.508;-122.806;2023-03-26T02:46:16;2.15;;;1.30;;
50851;SDS011;43953;45.508;-122.806;2023-03-26T02:46:48;1.65;;;1.30;;
50851;SDS011;43953;45.508;-122.806;2023-03-26T02:47:20;2.67;;;1.10;;
50851;SDS011;43953;45.508;-122.806;2023-03-26T02:47:52;3.45;;;1.30;;
50851;SDS011;43953;45.508;-122.806;2023-03-26T02:48:23;2.75;;;1.38;;
50851;SDS011;43953;45.508;-122.806;2023-03-26T02:48:55;1.95;;;1.13;;
50851;SDS011;43953;45.508;-122.806;2023-03-26T02:49:28;2.75;;;1.30;;
50851;SDS011;43953;45.508;-122.806;2023-03-26T02:50:00;2.15;;;1.10;;
50851;SDS011;43953;45.508;-122.806;2023-03-26T02:50:33;2.65;;;1.65;;
50851;SDS011;43953;45.508;-122.806;2023-03-26T02:51:06;2.97;;;1.20;;
50851;SDS011;43953;45.508;-122.806;2023-03-26T02:51:38;2.25;;;1.20;;
50851;SDS011;43953;45.508;-122.806;2023-03-26T02:52:10;2.00;;;1.10;;
50851;SDS011;43953;45.508;-122.806;2023-03-26T02:52:41;2.35;;;1.00;;
50851;SDS011;43953;45.508;-122.806;2023-03-26T02:53:15;1.65;;;1.00;;
50851;SDS011;43953;45.508;-122.806;2023-03-26T02:53:47;3.25;;;1.05;;
50851;SDS011;43953;45.508;-122.806;2023-03-26T02:54:19;2.30;;;1.02;;
50851;SDS011;43953;45.508;-122.806;2023-03-26T02:54:51;1.13;;;0.82;;
50851;SDS011;43953;45.508;-122.806;2023-03-26T02:55:23;1.30;;;0.88;;
50851;SDS011;43953;45.508;-122.806;2023-03-26T02:55:58;1.65;;;1.05;;
50851;SDS011;43953;45.508;-122.806;2023-03-26T02:56:30;1.58;;;1.00;;
50851;SDS011;43953;45.508;-122.806;2023-03-26T02:57:02;2.35;;;1.00;;
50851;SDS011;43953;45.508;-122.806;2023-03-26T02:57:34;2.90;;;1.00;;
50851;SDS011;43953;45.508;-122.806;2023-03-26T02:58:05;3.15;;;1.70;;
50851;SDS011;43953;45.508;-122.806;2023-03-26T02:58:37;4.18;;;2.05;;
50851;SDS011;43953;45.508;-122.806;2023-03-26T02:59:09;5.45;;;2.95;;
50851;SDS011;43953;45.508;-122.806;2023-03-26T02:59:41;4.60;;;2.67;;
50851;SDS011;43953;45.508;-122.806;2023-03-26T03:00:13;4.43;;;2.42;;
50851;SDS011;43953;45.508;-122.806;2023-03-26T03:00:45;4.85;;;2.90;;
50851;SDS011;43953;45.508;-122.806;2023-03-26T03:01:17;5.32;;;2.65;;
50851;SDS011;43953;45.508;-122.806;2023-03-26T03:01:48;5.20;;;3.00;;
50851;SDS011;43953;45.508;-122.806;2023-03-26T03:02:20;6.60;;;3.00;;
50851;SDS011;43953;45.508;-122.806;2023-03-26T03:02:54;5.43;;;3.00;;
50851;SDS011;43953;45.508;-122.806;2023-03-26T03:03:27;5.20;;;2.72;;
50851;SDS011;43953;45.508;-122.806;2023-03-26T03:04:00;6.30;;;3.00;;
50851;SDS011;43953;45.508;-122.806;2023-03-26T03:04:34;5.22;;;3.00;;
50851;SDS011;43953;45.508;-122.806;2023-03-26T03:05:05;4.28;;;2.35;;
50851;SDS011;43953;45.508;-122.806;2023-03-26T03:05:38;6.90;;;3.25;;
50851;SDS011;43953;45.508;-122.806;2023-03-26T03:06:13;4.82;;;2.80;;
50851;SDS011;43953;45.508;-122.806;2023-03-26T03:06:48;5.32;;;3.17;;
50851;SDS011;43953;45.508;-122.806;2023-03-26T03:07:22;4.40;;;2.97;;
50851;SDS011;43953;45.508;-122.806;2023-03-26T03:07:54;5.15;;;3.70;;
50851;SDS011;43953;45.508;-122.806;2023-03-26T03:08:27;6.13;;;3.28;;
50851;SDS011;43953;45.508;-122.806;2023-03-26T03:08:59;9.93;;;3.35;;
50851;SDS011;43953;45.508;-122.806;2023-03-26T03:09:32;5.88;;;3.33;;
50851;SDS011;43953;45.508;-122.806;2023-03-26T03:10:05;4.55;;;2.90;;
50851;SDS011;43953;45.508;-122.806;2023-03-26T03:10:38;4.75;;;2.97;;
50851;SDS011;43953;45.508;-122.806;2023-03-26T03:11:11;4.55;;;2.65;;
50851;SDS011;43953;45.508;-122.806;2023-03-26T03:11:45;3.95;;;2.17;;
50851;SDS011;43953;45.508;-122.806;2023-03-26T03:12:17;4.22;;;2.83;;
50851;SDS011;43953;45.508;-122.806;2023-03-26T03:12:48;4.97;;;2.47;;
50851;SDS011;43953;45.508;-122.806;2023-03-26T03:13:20;3.95;;;2.28;;
50851;SDS011;43953;45.508;-122.806;2023-03-26T03:13:52;5.47;;;2.42;;
50851;SDS011;43953;45.508;-122.806;2023-03-26T03:14:24;4.72;;;2.42;;
50851;SDS011;43953;45.508;-122.806;2023-03-26T03:14:56;2.97;;;1.98;;
50851;SDS011;43953;45.508;-122.806;2023-03-26T03:15:27;4.10;;;2.70;;
50851;SDS011;43953;45.508;-122.806;2023-03-26T03:15:59;5.03;;;3.08;;
50851;SDS011;43953;45.508;-122.806;2023-03-26T03:16:31;4.20;;;2.95;;
50851;SDS011;43953;45.508;-122.806;2023-03-26T03:17:03;3.58;;;2.75;;
50851;SDS011;43953;45.508;-122.806;2023-03-26T03:17:35;6.18;;;3.85;;
50851;SDS011;43953;45.508;-122.806;2023-03-26T03:18:06;4.40;;;3.25;;
50851;SDS011;43953;45.508;-122.806;2023-03-26T03:18:38;4.68;;;3.30;;
50851;SDS011;43953;45.508;-122.806;2023-03-26T03:19:10;4.85;;;3.40;;
50851;SDS011;43953;45.508;-122.806;2023-03-26T03:19:42;4.93;;;3.33;;
50851;SDS011;43953;45.508;-122.806;2023-03-26T03:20:15;5.90;;;3.88;;
50851;SDS011;43953;45.508;-122.806;2023-03-26T03:20:46;4.50;;;3.00;;
50851;SDS011;43953;45.508;-122.806;2023-03-26T03:21:19;5.55;;;3.85;;
50851;SDS011;43953;45.508;-122.806;2023-03-26T03:21:51;5.63;;;3.70;;
50851;SDS011;43953;45.508;-122.806;2023-03-26T03:22:23;5.75;;;3.88;;
50851;SDS011;43953;45.508;-122.806;2023-03-26T03:22:55;4.75;;;3.70;;
50851;SDS011;43953;45.508;-122.806;2023-03-26T03:23:26;5.35;;;3.45;;
50851;SDS011;43953;45.508;-122.806;2023-03-26T03:23:58;6.00;;;3.95;;
50851;SDS011;43953;45.508;-122.806;2023-03-26T03:24:30;5.55;;;3.72;;
50851;SDS011;43953;45.508;-122.806;2023-03-26T03:25:04;5.25;;;3.10;;
50851;SDS011;43953;45.508;-122.806;2023-03-26T03:25:38;7.25;;;3.85;;
50851;SDS011;43953;45.508;-122.806;2023-03-26T03:26:11;5.50;;;3.55;;
50851;SDS011;43953;45.508;-122.806;2023-03-26T03:26:45;4.60;;;3.90;;
50851;SDS011;43953;45.508;-122.806;2023-03-26T03:27:17;5.55;;;3.85;;
50851;SDS011;43953;45.508;-122.806;2023-03-26T03:27:50;5.57;;;4.07;;
50851;SDS011;43953;45.508;-122.806;2023-03-26T03:28:24;5.55;;;3.67;;
50851;SDS011;43953;45.508;-122.806;2023-03-26T03:28:56;5.85;;;3.83;;
50851;SDS011;43953;45.508;-122.806;2023-03-26T03:29:28;5.07;;;3.45;;
50851;SDS011;43953;45.508;-122.806;2023-03-26T03:30:00;5.97;;;4.13;;
50851;SDS011;43953;45.508;-122.806;2023-03-26T03:30:32;5.70;;;3.92;;
50851;SDS011;43953;45.508;-122.806;2023-03-26T03:31:04;6.35;;;3.63;;
50851;SDS011;43953;45.508;-122.806;2023-03-26T03:31:38;6.90;;;3.53;;
50851;SDS011;43953;45.508;-122.806;2023-03-26T03:32:11;5.05;;;3.55;;